createdAt,value
2022-10-30T00:01:02.545Z,50957.09
2022-10-30T00:03:29.142Z,50925.31
2022-10-30T00:05:55.733Z,50937.22
2022-10-30T00:08:25.541Z,50889.53
2022-10-30T00:10:52.455Z,50901.44
2022-10-30T00:13:19.553Z,50909.41
2022-10-30T00:15:53.158Z,50945.19
2022-10-30T00:18:20.432Z,50933.25
2022-10-30T00:20:47.104Z,50909.41
2022-10-30T00:23:13.752Z,50945.19
2022-10-30T00:25:40.351Z,50917.34
2022-10-30T00:28:07.601Z,50897.47
2022-10-30T00:30:34.808Z,50889.53
2022-10-30T00:33:01.777Z,50889.53
2022-10-30T00:35:28.664Z,50891.50
2022-10-30T00:37:55.663Z,50955.13
2022-10-30T00:40:22.793Z,50887.53
2022-10-30T00:42:49.405Z,50919.34
2022-10-30T00:45:16.904Z,50945.19
2022-10-30T00:47:45.140Z,50903.44
2022-10-30T00:50:14.678Z,50931.25
2022-10-30T00:52:46.142Z,50921.31
2022-10-30T00:55:15.883Z,50967.03
2022-10-30T00:57:43.054Z,50931.25
2022-10-30T01:00:10.707Z,50901.44
2022-10-30T01:02:38.007Z,50941.19
2022-10-30T01:05:06.054Z,50939.22
2022-10-30T01:07:32.732Z,50945.19
2022-10-30T01:09:59.796Z,50951.13
2022-10-30T01:12:26.919Z,50969.03
2022-10-30T01:14:56.250Z,50925.31
2022-10-30T01:17:30.632Z,50921.31
2022-10-30T01:20:10.058Z,50897.47
2022-10-30T01:22:58.152Z,50943.19
2022-10-30T01:25:25.120Z,50939.22
2022-10-30T01:27:58.444Z,50941.19
2022-10-30T01:30:25.149Z,50913.38
2022-10-30T01:33:01.461Z,50941.19
2022-10-30T01:35:40.843Z,50937.22
2022-10-30T01:38:15.226Z,50965.06
2022-10-30T01:40:45.404Z,50921.31
2022-10-30T01:43:12.114Z,50909.41
2022-10-30T01:45:57.368Z,50925.31
2022-10-30T01:48:36.353Z,50923.31
2022-10-30T01:51:03.489Z,50931.25
2022-10-30T01:53:36.308Z,50921.31
2022-10-30T01:56:19.353Z,50925.31
2022-10-30T01:58:46.367Z,50905.41
2022-10-30T02:01:13.352Z,50925.31
2022-10-30T02:03:40.201Z,50937.22
2022-10-30T02:06:07.695Z,50921.31
2022-10-30T02:08:34.350Z,50937.22
2022-10-30T02:11:04.993Z,50945.19
2022-10-30T02:13:38.535Z,50917.34
2022-10-30T02:16:05.607Z,50929.28
2022-10-30T02:18:32.253Z,50915.38
2022-10-30T02:21:00.747Z,50917.34
2022-10-30T02:23:27.535Z,50915.38
2022-10-30T02:25:54.850Z,50969.03
2022-10-30T02:28:21.576Z,50933.25
2022-10-30T02:30:48.829Z,50921.31
2022-10-30T02:33:15.509Z,50901.44
2022-10-30T02:35:42.131Z,50941.19
2022-10-30T02:38:08.921Z,50971.03
2022-10-30T02:40:35.558Z,50929.28
2022-10-30T02:43:02.157Z,50957.09
2022-10-30T02:45:29.703Z,50945.19
2022-10-30T02:47:56.762Z,50913.38
2022-10-30T02:50:23.615Z,50945.19
2022-10-30T02:52:51.538Z,50933.25
2022-10-30T02:55:18.297Z,50949.16
2022-10-30T02:57:46.551Z,50925.31
2022-10-30T03:00:13.489Z,50917.34
2022-10-30T03:02:40.216Z,50913.38
2022-10-30T03:05:07.093Z,50933.25
2022-10-30T03:07:34.129Z,50929.28
2022-10-30T03:10:00.766Z,50933.25
2022-10-30T03:12:27.365Z,50951.13
2022-10-30T03:14:53.941Z,50953.13
2022-10-30T03:17:20.589Z,50917.34
2022-10-30T03:19:48.918Z,50961.06
2022-10-30T03:22:15.559Z,50921.31
2022-10-30T03:24:42.198Z,50909.41
2022-10-30T03:27:08.869Z,50909.41
2022-10-30T03:29:35.520Z,50925.31
2022-10-30T03:32:04.904Z,50925.31
2022-10-30T03:34:35.945Z,50947.16
2022-10-30T03:37:05.956Z,50959.09
2022-10-30T03:39:32.939Z,50917.34
2022-10-30T03:41:59.637Z,50929.28
2022-10-30T03:44:27.285Z,50945.19
2022-10-30T03:46:55.237Z,50945.19
2022-10-30T03:49:28.288Z,50921.31
2022-10-30T03:51:56.343Z,50901.44
2022-10-30T03:54:25.323Z,50921.31
2022-10-30T03:56:51.944Z,50927.28
2022-10-30T03:59:23.318Z,50965.06
2022-10-30T04:02:15.827Z,50929.28
2022-10-30T04:04:42.706Z,50909.41
2022-10-30T04:07:09.430Z,50949.16
2022-10-30T04:09:36.198Z,50925.31
2022-10-30T04:12:02.831Z,50935.25
2022-10-30T04:14:29.755Z,50949.16
2022-10-30T04:16:56.399Z,50917.34
2022-10-30T04:19:22.956Z,50925.31
2022-10-30T04:21:51.334Z,50925.31
2022-10-30T04:24:18.901Z,50961.06
2022-10-30T04:26:49.014Z,50965.06
2022-10-30T04:29:15.722Z,50988.91
2022-10-30T04:31:43.570Z,50949.16
2022-10-30T04:34:10.922Z,50929.28
2022-10-30T04:36:37.720Z,50941.19
2022-10-30T04:39:04.417Z,50901.44
2022-10-30T04:41:32.636Z,50937.22
2022-10-30T04:44:04.243Z,50943.19
2022-10-30T04:46:32.478Z,50925.31
2022-10-30T04:49:06.795Z,50961.06
2022-10-30T04:51:33.528Z,50957.09
2022-10-30T04:54:01.360Z,50953.13
2022-10-30T04:56:32.987Z,50907.41
2022-10-30T04:59:00.098Z,50945.19
2022-10-30T05:01:26.824Z,50953.13
2022-10-30T05:03:54.989Z,50945.19
2022-10-30T05:06:26.497Z,50945.19
2022-10-30T05:08:53.550Z,50885.53
2022-10-30T05:11:29.640Z,50980.97
2022-10-30T05:13:56.545Z,50965.06
2022-10-30T05:16:23.311Z,50955.13
2022-10-30T05:18:51.317Z,50925.31
2022-10-30T05:21:17.928Z,50953.13
2022-10-30T05:23:46.287Z,50951.13
2022-10-30T05:26:12.875Z,50933.25
2022-10-30T05:28:40.275Z,50921.31
2022-10-30T05:31:06.956Z,50963.06
2022-10-30T05:33:51.927Z,50921.31
2022-10-30T05:36:18.989Z,50937.22
2022-10-30T05:38:46.710Z,50933.25
2022-10-30T05:41:22.022Z,50963.06
2022-10-30T05:43:48.642Z,50933.25
2022-10-30T05:46:15.534Z,50973.00
2022-10-30T05:48:42.542Z,50953.13
2022-10-30T05:51:09.221Z,50937.22
2022-10-30T05:53:39.208Z,50941.19
2022-10-30T05:56:06.150Z,50945.19
2022-10-30T05:58:34.881Z,50965.06
2022-10-30T06:01:07.412Z,50980.97
2022-10-30T06:03:44.496Z,50937.22
2022-10-30T06:06:12.235Z,50961.06
2022-10-30T06:08:38.974Z,50969.03
2022-10-30T06:11:21.724Z,50955.13
2022-10-30T06:13:53.455Z,50961.06
2022-10-30T06:16:26.327Z,50969.03
2022-10-30T06:19:18.681Z,50949.16
2022-10-30T06:21:47.717Z,50957.09
2022-10-30T06:24:22.638Z,50978.97
2022-10-30T06:27:04.535Z,50984.94
2022-10-30T06:29:31.105Z,50961.06
2022-10-30T06:31:59.723Z,50949.16
2022-10-30T06:34:29.163Z,50984.94
2022-10-30T06:36:56.011Z,50973.00
2022-10-30T06:39:22.953Z,50943.19
2022-10-30T06:42:09.541Z,50953.13
2022-10-30T06:44:58.033Z,50963.06
2022-10-30T06:47:24.718Z,50971.03
2022-10-30T06:49:51.834Z,50947.16
2022-10-30T06:52:23.030Z,50949.16
2022-10-30T06:54:51.287Z,50969.03
2022-10-30T06:57:40.703Z,51004.81
2022-10-30T07:00:25.326Z,50988.91
2022-10-30T07:03:10.684Z,50961.06
2022-10-30T07:05:37.283Z,50988.91
2022-10-30T07:08:03.994Z,50945.19
2022-10-30T07:10:30.698Z,50965.06
2022-10-30T07:13:23.418Z,50988.91
2022-10-30T07:15:55.375Z,50959.09
2022-10-30T07:18:25.468Z,50984.94
2022-10-30T07:20:56.730Z,50969.03
2022-10-30T07:23:24.365Z,50976.97
2022-10-30T07:25:53.616Z,50980.97
2022-10-30T07:28:31.868Z,50955.13
2022-10-30T07:31:42.372Z,50953.13
2022-10-30T07:34:48.635Z,50959.09
2022-10-30T07:37:30.605Z,50961.06
2022-10-30T07:40:12.953Z,50953.13
2022-10-30T07:42:46.313Z,50969.03
2022-10-30T07:45:40.665Z,50949.16
2022-10-30T07:48:25.627Z,51004.81
2022-10-30T07:51:27.228Z,50973.00
2022-10-30T07:53:55.125Z,50994.88
2022-10-30T07:56:23.903Z,51008.78
2022-10-30T07:58:56.426Z,50996.84
2022-10-30T08:01:44.627Z,50973.00
2022-10-30T08:04:26.821Z,50961.06
2022-10-30T08:06:58.861Z,50961.06
2022-10-30T08:09:25.466Z,50953.13
2022-10-30T08:11:52.160Z,50969.03
2022-10-30T08:14:18.835Z,50990.91
2022-10-30T08:16:45.500Z,50978.97
2022-10-30T08:19:12.117Z,51008.78
2022-10-30T08:21:38.778Z,50969.03
2022-10-30T08:24:10.455Z,50982.94
2022-10-30T08:26:42.023Z,50980.97
2022-10-30T08:29:10.813Z,50973.00
2022-10-30T08:31:38.255Z,50957.09
2022-10-30T08:34:36.996Z,51008.78
2022-10-30T08:37:07.992Z,50973.00
2022-10-30T08:39:35.197Z,50945.19
2022-10-30T08:42:21.724Z,50988.91
2022-10-30T08:44:49.086Z,51008.78
2022-10-30T08:47:15.694Z,51012.75
2022-10-30T08:49:42.366Z,50967.03
2022-10-30T08:52:10.239Z,50971.03
2022-10-30T08:54:38.274Z,50965.06
2022-10-30T08:57:05.743Z,50992.88
2022-10-30T08:59:32.373Z,50949.16
2022-10-30T09:01:59.993Z,50996.84
2022-10-30T09:04:45.535Z,50984.94
2022-10-30T09:07:13.124Z,50998.84
2022-10-30T09:09:39.932Z,50961.06
2022-10-30T09:12:07.521Z,50986.91
2022-10-30T09:14:41.702Z,50976.97
2022-10-30T09:17:09.624Z,51008.78
2022-10-30T09:19:38.125Z,51004.81
2022-10-30T09:22:05.512Z,50975.00
2022-10-30T09:24:33.982Z,50984.94
2022-10-30T09:27:19.233Z,50957.09
2022-10-30T09:29:49.002Z,50973.00
2022-10-30T09:32:22.195Z,51008.78
2022-10-30T09:35:06.278Z,50984.94
2022-10-30T09:37:38.108Z,50971.03
2022-10-30T09:40:14.131Z,50955.13
2022-10-30T09:42:41.840Z,50984.94
2022-10-30T09:48:11.493Z,50976.97
2022-10-30T09:50:59.521Z,50984.94
2022-10-30T09:53:44.974Z,50996.84
2022-10-30T09:56:22.953Z,50992.88
2022-10-30T09:58:58.560Z,50984.94
2022-10-30T10:01:39.427Z,50988.91
2022-10-30T10:04:22.311Z,50992.88
2022-10-30T10:07:23.038Z,51004.81
2022-10-30T10:10:13.390Z,50969.03
2022-10-30T10:12:49.778Z,51016.72
2022-10-30T10:15:34.907Z,51008.78
2022-10-30T10:18:02.570Z,50971.03
2022-10-30T10:20:37.236Z,50988.91
2022-10-30T10:23:52.234Z,51012.75
2022-10-30T10:26:23.575Z,50965.06
2022-10-30T10:28:56.191Z,50933.25
2022-10-30T10:31:36.732Z,51008.78
2022-10-30T10:34:06.032Z,50976.97
2022-10-30T10:36:42.272Z,51004.81
2022-10-30T10:39:14.872Z,50996.84
2022-10-30T10:41:56.531Z,50976.97
2022-10-30T10:44:31.911Z,50961.06
2022-10-30T10:47:17.591Z,51000.84
2022-10-30T10:49:53.622Z,50980.97
2022-10-30T10:52:25.686Z,51008.78
2022-10-30T10:54:56.255Z,50996.84
2022-10-30T10:57:22.820Z,50969.03
2022-10-30T10:59:53.901Z,50992.88
2022-10-30T11:02:20.547Z,50980.97
2022-10-30T11:04:50.507Z,50992.88
2022-10-30T11:07:20.920Z,50996.84
2022-10-30T11:09:51.192Z,50988.91
2022-10-30T11:12:20.898Z,51008.78
2022-10-30T11:14:47.562Z,50980.97
2022-10-30T11:17:24.193Z,51008.78
2022-10-30T11:19:54.768Z,51012.75
2022-10-30T11:22:25.803Z,51008.78
2022-10-30T11:24:52.384Z,50980.97
2022-10-30T11:27:25.184Z,50961.06
2022-10-30T11:29:59.176Z,50990.91
2022-10-30T11:32:30.539Z,50945.19
2022-10-30T11:35:11.373Z,50973.00
2022-10-30T11:37:39.269Z,50982.94
2022-10-30T11:40:11.705Z,50947.16
2022-10-30T11:42:49.423Z,50988.91
2022-10-30T11:45:23.565Z,50965.06
2022-10-30T11:47:50.699Z,50953.13
2022-10-30T11:50:22.116Z,50980.97
2022-10-30T11:52:55.207Z,50969.03
2022-10-30T11:55:27.692Z,50976.97
2022-10-30T11:57:58.444Z,50976.97
2022-10-30T12:00:27.284Z,50996.84
2022-10-30T12:02:56.624Z,50976.97
2022-10-30T12:05:23.634Z,50973.00
2022-10-30T12:07:50.146Z,50988.91
2022-10-30T12:10:30.059Z,50969.03
2022-10-30T12:12:57.144Z,50953.13
2022-10-30T12:15:27.643Z,50988.91
2022-10-30T12:17:55.230Z,50973.00
2022-10-30T12:20:21.976Z,50967.03
2022-10-30T12:22:49.146Z,50994.88
2022-10-30T12:25:28.384Z,50976.97
2022-10-30T12:28:00.940Z,50963.06
2022-10-30T12:30:29.918Z,50976.97
2022-10-30T12:32:59.262Z,50969.03
2022-10-30T12:35:44.509Z,50941.19
2022-10-30T12:38:17.831Z,50949.16
2022-10-30T12:40:50.235Z,50937.22
2022-10-30T12:43:23.250Z,50945.19
2022-10-30T12:45:51.253Z,50965.06
2022-10-30T12:48:27.209Z,50937.22
2022-10-30T12:51:11.397Z,50933.25
2022-10-30T12:54:00.237Z,50933.25
2022-10-30T12:56:32.247Z,50899.47
2022-10-30T12:59:20.771Z,50935.25
2022-10-30T13:02:04.973Z,50925.31
2022-10-30T13:04:35.988Z,50941.19
2022-10-30T13:07:05.404Z,50945.19
2022-10-30T13:09:37.985Z,50945.19
2022-10-30T13:12:13.435Z,50929.28
2022-10-30T13:14:46.069Z,50976.97
2022-10-30T13:17:13.141Z,50973.00
2022-10-30T13:19:41.301Z,50984.94
2022-10-30T13:22:26.755Z,50978.97
2022-10-30T13:25:14.974Z,50955.13
2022-10-30T13:27:45.411Z,50965.06
2022-10-30T13:30:18.270Z,50961.06
2022-10-30T13:33:00.708Z,50937.22
2022-10-30T13:35:41.721Z,50959.09
2022-10-30T13:38:20.579Z,50945.19
2022-10-30T13:40:51.332Z,50969.03
2022-10-30T13:43:56.358Z,50945.19
2022-10-30T13:46:22.964Z,50963.06
2022-10-30T13:49:07.931Z,50947.16
2022-10-30T13:51:43.551Z,50969.03
2022-10-30T13:54:13.233Z,50988.91
2022-10-30T13:56:41.267Z,50976.97
2022-10-30T13:59:07.827Z,50980.97
2022-10-30T14:01:46.447Z,50951.13
2022-10-30T14:04:16.888Z,50969.03
2022-10-30T14:06:57.517Z,50957.09
2022-10-30T14:09:44.366Z,50975.00
2022-10-30T14:12:29.580Z,50965.06
2022-10-30T14:14:56.265Z,50961.06
2022-10-30T14:17:24.922Z,50984.94
2022-10-30T14:20:13.339Z,50973.00
2022-10-30T14:22:42.010Z,50992.88
2022-10-30T14:25:15.711Z,50973.00
2022-10-30T14:27:42.679Z,50965.06
2022-10-30T14:30:19.572Z,50980.97
2022-10-30T14:32:52.431Z,51002.81
2022-10-30T14:35:28.378Z,50937.22
2022-10-30T14:37:56.266Z,50957.09
2022-10-30T14:40:31.917Z,50969.03
2022-10-30T14:43:02.700Z,50973.00
2022-10-30T14:45:34.046Z,50957.09
2022-10-30T14:48:27.100Z,50984.94
2022-10-30T14:51:05.616Z,51016.72
2022-10-30T14:53:32.207Z,50976.97
2022-10-30T14:56:07.341Z,50976.97
2022-10-30T14:58:35.475Z,50973.00
2022-10-30T15:01:04.988Z,51018.72
2022-10-30T15:03:50.195Z,50976.97
2022-10-30T15:06:16.800Z,50994.88
2022-10-30T15:08:43.417Z,50982.94
2022-10-30T15:11:11.850Z,50984.94
2022-10-30T15:13:50.452Z,50988.91
2022-10-30T15:16:19.081Z,50973.00
2022-10-30T15:18:47.940Z,50988.91
2022-10-30T15:21:20.513Z,51016.72
2022-10-30T15:23:47.155Z,50967.03
2022-10-30T15:26:20.893Z,50988.91
2022-10-30T15:28:49.786Z,51004.81
2022-10-30T15:31:24.585Z,50965.06
2022-10-30T15:33:51.684Z,50980.97
2022-10-30T15:36:18.991Z,51024.69
2022-10-30T15:39:02.727Z,50992.88
2022-10-30T15:41:29.986Z,50988.91
2022-10-30T15:43:59.016Z,50992.88
2022-10-30T15:46:25.852Z,50988.91
2022-10-30T15:48:52.569Z,50992.88
2022-10-30T15:51:21.256Z,50976.97
2022-10-30T15:54:00.783Z,51012.75
2022-10-30T15:56:33.476Z,51004.81
2022-10-30T15:59:02.044Z,51016.72
2022-10-30T16:01:31.844Z,50996.84
2022-10-30T16:03:58.687Z,50998.84
2022-10-30T16:06:29.766Z,50976.97
2022-10-30T16:08:56.370Z,50980.97
2022-10-30T16:11:23.446Z,50986.91
2022-10-30T16:13:50.286Z,51006.78
2022-10-30T16:16:21.160Z,50990.91
2022-10-30T16:18:48.185Z,51012.75
2022-10-30T16:21:16.499Z,50988.91
2022-10-30T16:24:02.947Z,50992.88
2022-10-30T16:26:32.801Z,50973.00
2022-10-30T16:29:01.939Z,51008.78
2022-10-30T16:31:32.959Z,50976.97
2022-10-30T16:33:59.953Z,50982.94
2022-10-30T16:36:26.640Z,50973.00
2022-10-30T16:38:54.388Z,51046.56
2022-10-30T16:41:26.594Z,50992.88
2022-10-30T16:44:19.983Z,50992.88
2022-10-30T16:46:52.115Z,50973.00
2022-10-30T16:49:20.507Z,51008.78
2022-10-30T16:51:47.901Z,50976.97
2022-10-30T16:54:22.217Z,51004.81
2022-10-30T16:56:51.180Z,50971.03
2022-10-30T16:59:27.437Z,50988.91
2022-10-30T17:01:55.926Z,51000.84
2022-10-30T17:04:22.806Z,51016.72
2022-10-30T17:06:50.656Z,51016.72
2022-10-30T17:09:27.638Z,50976.97
2022-10-30T17:12:03.714Z,51000.84
2022-10-30T17:14:40.827Z,51036.63
2022-10-30T17:17:19.878Z,51016.72
2022-10-30T17:19:47.469Z,50996.84
2022-10-30T17:22:17.566Z,50965.06
2022-10-30T17:24:44.236Z,51008.78
2022-10-30T17:27:31.093Z,50980.97
2022-10-30T17:29:57.861Z,50998.84
2022-10-30T17:32:28.817Z,51010.78
2022-10-30T17:35:03.103Z,50988.91
2022-10-30T17:37:29.731Z,51020.72
2022-10-30T17:39:56.553Z,50992.88
2022-10-30T17:42:23.297Z,50961.06
2022-10-30T17:44:49.928Z,50988.91
2022-10-30T17:47:18.142Z,51022.69
2022-10-30T17:49:45.446Z,51044.56
2022-10-30T17:52:13.588Z,51004.81
2022-10-30T17:54:41.515Z,51012.75
2022-10-30T17:57:12.003Z,51010.78
2022-10-30T17:59:39.314Z,51028.66
2022-10-30T18:02:19.463Z,50988.91
2022-10-30T18:04:47.577Z,51014.75
2022-10-30T18:07:15.589Z,50976.97
2022-10-30T18:09:42.745Z,51028.66
2022-10-30T18:12:14.319Z,51004.81
2022-10-30T18:14:40.983Z,51028.66
2022-10-30T18:17:07.605Z,50984.94
2022-10-30T18:19:34.175Z,50982.94
2022-10-30T18:22:00.876Z,50973.00
2022-10-30T18:24:27.457Z,50973.00
2022-10-30T18:26:54.984Z,50986.91
2022-10-30T18:29:21.580Z,50990.91
2022-10-30T18:31:48.263Z,51022.69
2022-10-30T18:34:16.558Z,50984.94
2022-10-30T18:36:43.446Z,51012.75
2022-10-30T18:39:11.645Z,51004.81
2022-10-30T18:41:40.024Z,51034.63
2022-10-30T18:44:06.744Z,50994.88
2022-10-30T18:46:34.180Z,51008.78
2022-10-30T18:49:00.778Z,51016.72
2022-10-30T18:51:28.208Z,51012.75
2022-10-30T18:53:56.880Z,50988.91
2022-10-30T18:56:27.815Z,50980.97
2022-10-30T18:58:58.751Z,50996.84
2022-10-30T19:01:28.473Z,51042.56
2022-10-30T19:03:55.222Z,50992.88
2022-10-30T19:06:23.144Z,51012.75
2022-10-30T19:08:49.905Z,51008.78
2022-10-30T19:11:20.359Z,51032.63
2022-10-30T19:13:51.104Z,51016.72
2022-10-30T19:16:19.113Z,50992.88
2022-10-30T19:18:46.254Z,51008.78
2022-10-30T19:21:16.938Z,51020.72
2022-10-30T19:23:44.826Z,51002.81
2022-10-30T19:26:13.761Z,50988.91
2022-10-30T19:28:41.129Z,50988.91
2022-10-30T19:31:07.919Z,50975.00
2022-10-30T19:33:34.497Z,51016.72
2022-10-30T19:36:02.436Z,50996.84
2022-10-30T19:38:29.146Z,50996.84
2022-10-30T19:40:55.724Z,51012.75
2022-10-30T19:43:22.639Z,51044.56
2022-10-30T19:45:51.431Z,51028.66
2022-10-30T19:48:40.508Z,51028.66
2022-10-30T19:51:09.418Z,50986.91
2022-10-30T19:53:36.058Z,51040.59
2022-10-30T19:56:02.650Z,51016.72
2022-10-30T19:58:29.253Z,50992.88
2022-10-30T20:00:56.082Z,51016.72
2022-10-30T20:03:22.717Z,50996.84
2022-10-30T20:05:52.824Z,51016.72
2022-10-30T20:08:19.478Z,51022.69
2022-10-30T20:10:57.330Z,51024.69
2022-10-30T20:13:25.004Z,51010.78
2022-10-30T20:15:55.121Z,51012.75
2022-10-30T20:18:22.978Z,51026.69
2022-10-30T20:20:51.295Z,51008.78
2022-10-30T20:23:18.473Z,51010.78
2022-10-30T20:25:45.175Z,51020.72
2022-10-30T20:28:32.064Z,50957.09
2022-10-30T20:30:59.068Z,51010.78
2022-10-30T20:33:26.119Z,50980.97
2022-10-30T20:35:54.640Z,50992.88
2022-10-30T20:38:22.413Z,51032.63
2022-10-30T20:40:49.418Z,51008.78
2022-10-30T20:43:17.694Z,51020.72
2022-10-30T20:45:44.415Z,51004.81
2022-10-30T20:48:11.541Z,50984.94
2022-10-30T20:50:38.602Z,50992.88
2022-10-30T20:53:05.619Z,51004.81
2022-10-30T20:55:35.520Z,51004.81
2022-10-30T20:58:02.675Z,51028.66
2022-10-30T21:00:29.946Z,50965.06
2022-10-30T21:02:56.596Z,50996.84
2022-10-30T21:05:42.835Z,51028.66
2022-10-30T21:08:09.929Z,50996.84
2022-10-30T21:10:37.287Z,51012.75
2022-10-30T21:13:07.527Z,51000.84
2022-10-30T21:15:37.624Z,50984.94
2022-10-30T21:18:04.344Z,51060.47
2022-10-30T21:20:30.937Z,51016.72
2022-10-30T21:22:57.629Z,51034.63
2022-10-30T21:25:24.189Z,51012.75
2022-10-30T21:27:50.766Z,51008.78
2022-10-30T21:30:17.752Z,50984.94
2022-10-30T21:32:44.363Z,51024.69
2022-10-30T21:35:11.066Z,50992.88
2022-10-30T21:37:37.661Z,50984.94
2022-10-30T21:40:05.048Z,51032.63
2022-10-30T21:42:31.642Z,51016.72
2022-10-30T21:44:58.290Z,51012.75
2022-10-30T21:47:24.854Z,50980.97
2022-10-30T21:49:51.489Z,50996.84
2022-10-30T21:52:18.092Z,50992.88
2022-10-30T21:54:44.679Z,51012.75
2022-10-30T21:59:42.762Z,51032.63
2022-10-30T22:02:13.122Z,50996.84
2022-10-30T22:04:39.833Z,51012.75
2022-10-30T22:07:06.500Z,50988.91
2022-10-30T22:09:33.134Z,51012.75
2022-10-30T22:11:59.750Z,50988.91
2022-10-30T22:14:26.977Z,51034.63
2022-10-30T22:16:53.582Z,51024.69
2022-10-30T22:19:20.234Z,51004.81
2022-10-30T22:21:46.771Z,50998.84
2022-10-30T22:24:13.816Z,51002.81
2022-10-30T22:26:40.388Z,51052.50
2022-10-30T22:29:07.053Z,50996.84
2022-10-30T22:31:33.854Z,51022.69
2022-10-30T22:34:01.074Z,51026.69
2022-10-30T22:36:32.538Z,51012.75
2022-10-30T22:38:59.134Z,51008.78
2022-10-30T22:41:27.134Z,51008.78
2022-10-30T22:43:55.863Z,50969.03
2022-10-30T22:46:27.105Z,51016.72
2022-10-30T22:48:53.748Z,51008.78
2022-10-30T22:51:21.708Z,51008.78
2022-10-30T22:53:54.190Z,50996.84
2022-10-30T22:56:21.724Z,51036.63
2022-10-30T22:58:49.084Z,51024.69
2022-10-30T23:01:19.761Z,51002.81
2022-10-30T23:03:46.470Z,51020.72
2022-10-30T23:06:13.344Z,50998.84
2022-10-30T23:08:39.965Z,51012.75
2022-10-30T23:11:07.174Z,51052.50
2022-10-30T23:13:34.570Z,50988.91
2022-10-30T23:16:02.006Z,50992.88
2022-10-30T23:18:28.734Z,51012.75
2022-10-30T23:20:59.633Z,51028.66
2022-10-30T23:23:26.201Z,51028.66
2022-10-30T23:25:52.843Z,51006.78
2022-10-30T23:28:19.577Z,51048.53
2022-10-30T23:30:46.255Z,51032.63
2022-10-30T23:33:13.012Z,51004.81
2022-10-30T23:35:39.533Z,50996.84
2022-10-30T23:38:06.090Z,51004.81
2022-10-30T23:40:32.688Z,50992.88
2022-10-30T23:42:59.592Z,51022.69
2022-10-30T23:45:26.606Z,51016.72
2022-10-30T23:47:53.177Z,51004.81
2022-10-30T23:50:19.840Z,51012.75
2022-10-30T23:52:46.857Z,51006.78
2022-10-30T23:55:13.424Z,51022.69
2022-10-30T23:57:40.127Z,51012.75
